sensor_id;sensor_type;location;lat;lon;timestamp;temperature;humidity
14934;DHT22;7560;51.364;12.384;2024-01-07T00:04:44;1.40;99.90
14934;DHT22;7560;51.364;12.384;2024-01-07T00:09:45;1.40;99.90
14934;DHT22;7560;51.364;12.384;2024-01-07T00:14:47;1.50;99.90
14934;DHT22;7560;51.364;12.384;2024-01-07T00:19:49;1.50;99.90
14934;DHT22;7560;51.364;12.384;2024-01-07T00:24:51;1.40;99.90
14934;DHT22;7560;51.364;12.384;2024-01-07T00:29:53;1.40;99.90
14934;DHT22;7560;51.364;12.384;2024-01-07T00:34:54;1.30;99.90
14934;DHT22;7560;51.364;12.384;2024-01-07T00:39:57;1.30;99.90
14934;DHT22;7560;51.364;12.384;2024-01-07T00:44:59;1.40;99.90
14934;DHT22;7560;51.364;12.384;2024-01-07T00:50:00;1.20;99.90
14934;DHT22;7560;51.364;12.384;2024-01-07T00:55:06;1.20;99.90
14934;DHT22;7560;51.364;12.384;2024-01-07T01:00:08;1.00;99.90
14934;DHT22;7560;51.364;12.384;2024-01-07T01:05:10;1.20;99.90
14934;DHT22;7560;51.364;12.384;2024-01-07T01:10:12;1.30;99.90
14934;DHT22;7560;51.364;12.384;2024-01-07T01:15:16;1.10;99.90
14934;DHT22;7560;51.364;12.384;2024-01-07T01:20:18;1.20;99.90
14934;DHT22;7560;51.364;12.384;2024-01-07T01:25:20;1.00;99.90
14934;DHT22;7560;51.364;12.384;2024-01-07T01:30:22;0.90;99.90
14934;DHT22;7560;51.364;12.384;2024-01-07T01:35:24;1.00;99.90
14934;DHT22;7560;51.364;12.384;2024-01-07T01:40:25;1.00;99.90
14934;DHT22;7560;51.364;12.384;2024-01-07T01:45:27;1.00;99.90
14934;DHT22;7560;51.364;12.384;2024-01-07T01:50:29;1.10;99.90
14934;DHT22;7560;51.364;12.384;2024-01-07T01:55:31;1.00;99.90
14934;DHT22;7560;51.364;12.384;2024-01-07T02:00:33;1.00;99.90
14934;DHT22;7560;51.364;12.384;2024-01-07T02:05:35;1.00;99.90
14934;DHT22;7560;51.364;12.384;2024-01-07T02:10:37;0.80;99.90
14934;DHT22;7560;51.364;12.384;2024-01-07T02:15:43;1.00;99.90
14934;DHT22;7560;51.364;12.384;2024-01-07T02:20:45;0.80;99.90
14934;DHT22;7560;51.364;12.384;2024-01-07T02:25:47;0.80;99.90
14934;DHT22;7560;51.364;12.384;2024-01-07T02:30:48;0.80;99.90
14934;DHT22;7560;51.364;12.384;2024-01-07T02:35:50;0.80;99.90
14934;DHT22;7560;51.364;12.384;2024-01-07T02:40:52;0.70;99.90
14934;DHT22;7560;51.364;12.384;2024-01-07T02:45:54;0.70;99.90
14934;DHT22;7560;51.364;12.384;2024-01-07T02:50:56;0.70;99.90
14934;DHT22;7560;51.364;12.384;2024-01-07T02:55:57;0.60;99.90
14934;DHT22;7560;51.364;12.384;2024-01-07T03:00:59;0.60;99.90
14934;DHT22;7560;51.364;12.384;2024-01-07T03:06:02;0.50;99.90
14934;DHT22;7560;51.364;12.384;2024-01-07T03:11:07;0.50;99.90
14934;DHT22;7560;51.364;12.384;2024-01-07T03:16:08;0.60;99.90
14934;DHT22;7560;51.364;12.384;2024-01-07T03:21:21;0.40;99.90
14934;DHT22;7560;51.364;12.384;2024-01-07T03:26:23;0.30;99.90
14934;DHT22;7560;51.364;12.384;2024-01-07T03:31:24;0.30;99.90
14934;DHT22;7560;51.364;12.384;2024-01-07T03:36:26;0.40;99.90
14934;DHT22;7560;51.364;12.384;2024-01-07T03:41:28;0.40;99.90
14934;DHT22;7560;51.364;12.384;2024-01-07T03:46:30;0.30;99.90
14934;DHT22;7560;51.364;12.384;2024-01-07T03:51:32;0.40;99.90
14934;DHT22;7560;51.364;12.384;2024-01-07T03:56:34;0.40;99.90
14934;DHT22;7560;51.364;12.384;2024-01-07T04:01:35;0.20;99.90
14934;DHT22;7560;51.364;12.384;2024-01-07T04:06:37;0.20;99.90
14934;DHT22;7560;51.364;12.384;2024-01-07T04:11:40;0.30;99.90
14934;DHT22;7560;51.364;12.384;2024-01-07T04:16:42;0.20;99.90
14934;DHT22;7560;51.364;12.384;2024-01-07T04:21:47;0.20;99.90
14934;DHT22;7560;51.364;12.384;2024-01-07T04:26:49;0.20;99.90
14934;DHT22;7560;51.364;12.384;2024-01-07T04:31:50;0.20;99.90
14934;DHT22;7560;51.364;12.384;2024-01-07T04:36:52;0.10;99.90
14934;DHT22;7560;51.364;12.384;2024-01-07T04:41:54;0.20;99.90
14934;DHT22;7560;51.364;12.384;2024-01-07T04:46:56;0.20;99.90
14934;DHT22;7560;51.364;12.384;2024-01-07T04:51:58;0.20;99.90
14934;DHT22;7560;51.364;12.384;2024-01-07T04:56:59;0.20;99.90
14934;DHT22;7560;51.364;12.384;2024-01-07T05:02:01;0.10;99.90
14934;DHT22;7560;51.364;12.384;2024-01-07T05:07:04;0.10;99.90
14934;DHT22;7560;51.364;12.384;2024-01-07T05:12:06;0.10;99.90
14934;DHT22;7560;51.364;12.384;2024-01-07T05:17:08;0.00;99.90
14934;DHT22;7560;51.364;12.384;2024-01-07T05:22:09;0.00;99.90
14934;DHT22;7560;51.364;12.384;2024-01-07T05:27:11;-0.10;99.90
14934;DHT22;7560;51.364;12.384;2024-01-07T05:32:13;0.00;99.90
14934;DHT22;7560;51.364;12.384;2024-01-07T05:37:15;0.00;99.90
14934;DHT22;7560;51.364;12.384;2024-01-07T05:42:17;0.00;99.90
14934;DHT22;7560;51.364;12.384;2024-01-07T05:47:18;-0.20;99.90
14934;DHT22;7560;51.364;12.384;2024-01-07T05:52:20;-0.10;99.90
14934;DHT22;7560;51.364;12.384;2024-01-07T05:57:22;-0.20;99.90
14934;DHT22;7560;51.364;12.384;2024-01-07T06:02:24;-0.20;99.90
14934;DHT22;7560;51.364;12.384;2024-01-07T06:07:26;-0.20;99.90
14934;DHT22;7560;51.364;12.384;2024-01-07T06:12:28;-0.10;99.90
14934;DHT22;7560;51.364;12.384;2024-01-07T06:17:30;-0.10;99.90
14934;DHT22;7560;51.364;12.384;2024-01-07T06:22:32;-0.10;99.90
14934;DHT22;7560;51.364;12.384;2024-01-07T06:27:34;-0.20;99.90
14934;DHT22;7560;51.364;12.384;2024-01-07T06:32:36;-0.10;99.90
14934;DHT22;7560;51.364;12.384;2024-01-07T06:37:38;-0.10;99.90
14934;DHT22;7560;51.364;12.384;2024-01-07T06:42:40;-0.10;99.90
14934;DHT22;7560;51.364;12.384;2024-01-07T06:47:42;-0.20;99.90
14934;DHT22;7560;51.364;12.384;2024-01-07T06:52:44;-0.20;99.90
14934;DHT22;7560;51.364;12.384;2024-01-07T06:57:46;-0.10;99.90
14934;DHT22;7560;51.364;12.384;2024-01-07T07:02:48;-0.30;99.90
14934;DHT22;7560;51.364;12.384;2024-01-07T07:07:49;-0.30;99.90
14934;DHT22;7560;51.364;12.384;2024-01-07T07:12:56;-0.40;99.90
14934;DHT22;7560;51.364;12.384;2024-01-07T07:17:57;-0.40;99.90
14934;DHT22;7560;51.364;12.384;2024-01-07T07:22:59;-0.50;99.90
14934;DHT22;7560;51.364;12.384;2024-01-07T07:28:01;-0.60;99.90
14934;DHT22;7560;51.364;12.384;2024-01-07T07:33:03;-0.60;99.90
14934;DHT22;7560;51.364;12.384;2024-01-07T07:38:05;-0.50;99.90
14934;DHT22;7560;51.364;12.384;2024-01-07T07:43:07;-0.60;99.90
14934;DHT22;7560;51.364;12.384;2024-01-07T07:48:09;-0.60;99.90
14934;DHT22;7560;51.364;12.384;2024-01-07T07:53:11;-0.70;99.90
14934;DHT22;7560;51.364;12.384;2024-01-07T07:58:12;-0.70;99.90
14934;DHT22;7560;51.364;12.384;2024-01-07T08:03:14;-0.70;99.90
14934;DHT22;7560;51.364;12.384;2024-01-07T08:08:17;-0.60;99.90
14934;DHT22;7560;51.364;12.384;2024-01-07T08:13:19;-0.70;99.90
14934;DHT22;7560;51.364;12.384;2024-01-07T08:18:21;-0.80;99.90
14934;DHT22;7560;51.364;12.384;2024-01-07T08:23:24;-0.70;99.90
14934;DHT22;7560;51.364;12.384;2024-01-07T08:28:25;-0.80;99.90
14934;DHT22;7560;51.364;12.384;2024-01-07T08:33:27;-0.70;99.90
14934;DHT22;7560;51.364;12.384;2024-01-07T08:38:30;-1.00;99.90
14934;DHT22;7560;51.364;12.384;2024-01-07T08:43:32;-1.10;99.90
14934;DHT22;7560;51.364;12.384;2024-01-07T08:48:34;-1.00;99.90
14934;DHT22;7560;51.364;12.384;2024-01-07T08:53:36;-0.90;99.90
14934;DHT22;7560;51.364;12.384;2024-01-07T08:58:40;-0.90;99.90
14934;DHT22;7560;51.364;12.384;2024-01-07T09:03:41;-0.80;99.90
14934;DHT22;7560;51.364;12.384;2024-01-07T09:08:43;-0.80;99.90
14934;DHT22;7560;51.364;12.384;2024-01-07T09:13:45;-0.70;99.90
14934;DHT22;7560;51.364;12.384;2024-01-07T09:18:49;-0.90;99.90
14934;DHT22;7560;51.364;12.384;2024-01-07T09:23:52;-0.80;99.90
14934;DHT22;7560;51.364;12.384;2024-01-07T09:28:54;-0.90;99.90
14934;DHT22;7560;51.364;12.384;2024-01-07T09:33:56;-0.90;99.90
14934;DHT22;7560;51.364;12.384;2024-01-07T09:38:58;-0.80;99.90
14934;DHT22;7560;51.364;12.384;2024-01-07T09:44:00;-0.70;99.90
14934;DHT22;7560;51.364;12.384;2024-01-07T09:49:02;-0.80;99.90
14934;DHT22;7560;51.364;12.384;2024-01-07T09:54:06;-0.70;99.90
14934;DHT22;7560;51.364;12.384;2024-01-07T09:59:13;-0.70;99.90
14934;DHT22;7560;51.364;12.384;2024-01-07T10:04:17;-0.90;99.90
14934;DHT22;7560;51.364;12.384;2024-01-07T10:09:19;-0.70;99.90
14934;DHT22;7560;51.364;12.384;2024-01-07T10:14:21;-0.40;99.90
14934;DHT22;7560;51.364;12.384;2024-01-07T10:19:28;-0.50;99.90
14934;DHT22;7560;51.364;12.384;2024-01-07T10:24:37;-0.60;99.90
14934;DHT22;7560;51.364;12.384;2024-01-07T10:29:40;-0.40;99.90
14934;DHT22;7560;51.364;12.384;2024-01-07T10:34:45;-0.30;99.90
14934;DHT22;7560;51.364;12.384;2024-01-07T10:39:48;-0.20;99.90
14934;DHT22;7560;51.364;12.384;2024-01-07T10:44:50;-0.20;99.90
14934;DHT22;7560;51.364;12.384;2024-01-07T10:49:53;-0.10;99.90
14934;DHT22;7560;51.364;12.384;2024-01-07T10:55:03;0.00;99.90
14934;DHT22;7560;51.364;12.384;2024-01-07T11:00:13;0.10;99.90
14934;DHT22;7560;51.364;12.384;2024-01-07T11:05:25;0.10;99.90
14934;DHT22;7560;51.364;12.384;2024-01-07T11:10:38;0.10;99.90
14934;DHT22;7560;51.364;12.384;2024-01-07T11:15:53;-0.10;99.90
14934;DHT22;7560;51.364;12.384;2024-01-07T11:21:01;0.10;99.90
14934;DHT22;7560;51.364;12.384;2024-01-07T11:26:04;0.10;99.90
14934;DHT22;7560;51.364;12.384;2024-01-07T11:31:06;0.10;99.90
14934;DHT22;7560;51.364;12.384;2024-01-07T11:36:12;0.00;99.90
14934;DHT22;7560;51.364;12.384;2024-01-07T11:41:15;0.10;99.90
14934;DHT22;7560;51.364;12.384;2024-01-07T11:46:18;0.10;99.90
14934;DHT22;7560;51.364;12.384;2024-01-07T11:51:21;0.00;99.90
14934;DHT22;7560;51.364;12.384;2024-01-07T11:56:24;0.20;99.90
14934;DHT22;7560;51.364;12.384;2024-01-07T12:01:26;-0.20;99.90
14934;DHT22;7560;51.364;12.384;2024-01-07T12:06:29;-0.30;99.90
14934;DHT22;7560;51.364;12.384;2024-01-07T12:11:30;-0.30;99.90
14934;DHT22;7560;51.364;12.384;2024-01-07T12:16:33;-0.30;99.90
14934;DHT22;7560;51.364;12.384;2024-01-07T12:21:38;-0.10;99.90
14934;DHT22;7560;51.364;12.384;2024-01-07T12:26:40;-0.20;99.90
14934;DHT22;7560;51.364;12.384;2024-01-07T12:31:41;-0.30;99.90
14934;DHT22;7560;51.364;12.384;2024-01-07T12:36:45;-0.30;99.90
14934;DHT22;7560;51.364;12.384;2024-01-07T12:41:47;-0.10;99.90
14934;DHT22;7560;51.364;12.384;2024-01-07T12:46:49;-0.20;99.90
14934;DHT22;7560;51.364;12.384;2024-01-07T12:51:53;-0.20;99.90
14934;DHT22;7560;51.364;12.384;2024-01-07T12:56:55;-0.20;99.90
14934;DHT22;7560;51.364;12.384;2024-01-07T13:01:57;-0.20;99.90
14934;DHT22;7560;51.364;12.384;2024-01-07T13:06:59;-0.10;99.90
14934;DHT22;7560;51.364;12.384;2024-01-07T13:12:01;0.00;99.90
14934;DHT22;7560;51.364;12.384;2024-01-07T13:17:04;0.10;99.90
14934;DHT22;7560;51.364;12.384;2024-01-07T13:22:05;-0.10;99.90
14934;DHT22;7560;51.364;12.384;2024-01-07T13:27:07;0.20;99.90
14934;DHT22;7560;51.364;12.384;2024-01-07T13:32:13;0.20;99.90
14934;DHT22;7560;51.364;12.384;2024-01-07T13:37:19;0.30;99.90
14934;DHT22;7560;51.364;12.384;2024-01-07T13:42:22;0.40;99.90
14934;DHT22;7560;51.364;12.384;2024-01-07T13:47:23;0.40;99.90
14934;DHT22;7560;51.364;12.384;2024-01-07T13:52:25;0.40;99.90
14934;DHT22;7560;51.364;12.384;2024-01-07T13:57:27;0.20;99.90
14934;DHT22;7560;51.364;12.384;2024-01-07T14:02:29;0.20;99.90
14934;DHT22;7560;51.364;12.384;2024-01-07T14:07:30;0.20;99.90
14934;DHT22;7560;51.364;12.384;2024-01-07T14:12:32;0.20;99.90
14934;DHT22;7560;51.364;12.384;2024-01-07T14:17:34;0.10;99.90
14934;DHT22;7560;51.364;12.384;2024-01-07T14:22:36;0.10;99.90
14934;DHT22;7560;51.364;12.384;2024-01-07T14:27:38;0.10;99.90
14934;DHT22;7560;51.364;12.384;2024-01-07T14:32:41;0.00;99.90
14934;DHT22;7560;51.364;12.384;2024-01-07T14:37:43;0.00;99.90
14934;DHT22;7560;51.364;12.384;2024-01-07T14:42:44;0.00;99.90
14934;DHT22;7560;51.364;12.384;2024-01-07T14:47:46;0.00;99.90
14934;DHT22;7560;51.364;12.384;2024-01-07T14:52:48;-0.10;99.90
14934;DHT22;7560;51.364;12.384;2024-01-07T14:57:50;0.00;99.90
14934;DHT22;7560;51.364;12.384;2024-01-07T15:02:53;0.00;99.90
14934;DHT22;7560;51.364;12.384;2024-01-07T15:07:54;-0.10;99.90
14934;DHT22;7560;51.364;12.384;2024-01-07T15:12:56;-0.10;99.90
14934;DHT22;7560;51.364;12.384;2024-01-07T15:18:07;-0.20;99.90
14934;DHT22;7560;51.364;12.384;2024-01-07T15:23:09;-0.30;99.90
14934;DHT22;7560;51.364;12.384;2024-01-07T15:28:11;-0.20;99.90
14934;DHT22;7560;51.364;12.384;2024-01-07T15:33:15;-0.20;99.90
14934;DHT22;7560;51.364;12.384;2024-01-07T15:38:17;-0.30;99.90
14934;DHT22;7560;51.364;12.384;2024-01-07T15:43:19;-0.20;99.90
14934;DHT22;7560;51.364;12.384;2024-01-07T15:48:21;-0.30;99.90
14934;DHT22;7560;51.364;12.384;2024-01-07T15:53:23;-0.30;99.90
14934;DHT22;7560;51.364;12.384;2024-01-07T15:58:29;-0.20;99.90
14934;DHT22;7560;51.364;12.384;2024-01-07T16:03:35;-0.30;99.90
14934;DHT22;7560;51.364;12.384;2024-01-07T16:08:37;-0.30;99.90
14934;DHT22;7560;51.364;12.384;2024-01-07T16:13:39;-0.40;99.90
14934;DHT22;7560;51.364;12.384;2024-01-07T16:18:40;-0.40;99.90
14934;DHT22;7560;51.364;12.384;2024-01-07T16:23:42;-0.40;99.90
14934;DHT22;7560;51.364;12.384;2024-01-07T16:28:44;-0.40;99.90
14934;DHT22;7560;51.364;12.384;2024-01-07T16:33:46;-0.40;99.90
14934;DHT22;7560;51.364;12.384;2024-01-07T16:38:48;-0.50;99.90
14934;DHT22;7560;51.364;12.384;2024-01-07T16:43:50;-0.60;99.90
14934;DHT22;7560;51.364;12.384;2024-01-07T16:48:52;-0.50;99.90
14934;DHT22;7560;51.364;12.384;2024-01-07T16:54:14;-0.40;99.90
14934;DHT22;7560;51.364;12.384;2024-01-07T16:59:16;-0.40;99.90
14934;DHT22;7560;51.364;12.384;2024-01-07T17:04:18;-0.50;99.90
14934;DHT22;7560;51.364;12.384;2024-01-07T17:09:22;-0.40;99.90
14934;DHT22;7560;51.364;12.384;2024-01-07T17:14:25;-0.30;99.90
14934;DHT22;7560;51.364;12.384;2024-01-07T17:19:27;-0.30;99.90
14934;DHT22;7560;51.364;12.384;2024-01-07T17:24:29;-0.30;99.90
14934;DHT22;7560;51.364;12.384;2024-01-07T17:29:34;-0.30;99.90
14934;DHT22;7560;51.364;12.384;2024-01-07T17:34:35;-0.30;99.90
14934;DHT22;7560;51.364;12.384;2024-01-07T17:39:38;-0.20;99.90
14934;DHT22;7560;51.364;12.384;2024-01-07T17:44:40;-0.10;99.90
14934;DHT22;7560;51.364;12.384;2024-01-07T17:49:44;-0.10;99.90
14934;DHT22;7560;51.364;12.384;2024-01-07T17:54:47;0.00;99.90
14934;DHT22;7560;51.364;12.384;2024-01-07T17:59:49;0.00;99.90
14934;DHT22;7560;51.364;12.384;2024-01-07T18:04:51;0.00;99.90
14934;DHT22;7560;51.364;12.384;2024-01-07T18:09:53;0.00;99.90
14934;DHT22;7560;51.364;12.384;2024-01-07T18:14:55;0.10;99.90
14934;DHT22;7560;51.364;12.384;2024-01-07T18:19:59;0.10;99.90
14934;DHT22;7560;51.364;12.384;2024-01-07T18:25:01;0.20;99.90
14934;DHT22;7560;51.364;12.384;2024-01-07T18:30:03;0.20;99.90
14934;DHT22;7560;51.364;12.384;2024-01-07T18:35:05;0.20;99.90
14934;DHT22;7560;51.364;12.384;2024-01-07T18:40:07;0.20;99.90
14934;DHT22;7560;51.364;12.384;2024-01-07T18:45:12;0.20;99.90
14934;DHT22;7560;51.364;12.384;2024-01-07T18:50:14;0.20;99.90
14934;DHT22;7560;51.364;12.384;2024-01-07T18:55:17;0.10;99.90
14934;DHT22;7560;51.364;12.384;2024-01-07T19:00:21;0.10;99.90
14934;DHT22;7560;51.364;12.384;2024-01-07T19:05:23;0.10;99.90
14934;DHT22;7560;51.364;12.384;2024-01-07T19:10:25;0.10;99.90
14934;DHT22;7560;51.364;12.384;2024-01-07T19:15:27;0.10;99.90
14934;DHT22;7560;51.364;12.384;2024-01-07T19:20:29;0.10;99.90
14934;DHT22;7560;51.364;12.384;2024-01-07T19:25:34;0.10;99.90
14934;DHT22;7560;51.364;12.384;2024-01-07T19:30:35;0.20;99.90
14934;DHT22;7560;51.364;12.384;2024-01-07T19:35:37;0.20;99.90
14934;DHT22;7560;51.364;12.384;2024-01-07T19:40:39;0.20;99.90
14934;DHT22;7560;51.364;12.384;2024-01-07T19:45:41;0.20;99.90
14934;DHT22;7560;51.364;12.384;2024-01-07T19:50:44;0.20;99.90
14934;DHT22;7560;51.364;12.384;2024-01-07T19:55:48;0.20;99.90
14934;DHT22;7560;51.364;12.384;2024-01-07T20:00:51;0.20;99.90
14934;DHT22;7560;51.364;12.384;2024-01-07T20:05:53;0.20;99.90
14934;DHT22;7560;51.364;12.384;2024-01-07T20:10:55;0.20;99.90
14934;DHT22;7560;51.364;12.384;2024-01-07T20:16:00;0.20;99.90
14934;DHT22;7560;51.364;12.384;2024-01-07T20:21:02;0.30;99.90
14934;DHT22;7560;51.364;12.384;2024-01-07T20:26:04;0.30;99.90
14934;DHT22;7560;51.364;12.384;2024-01-07T20:31:07;0.30;99.90
14934;DHT22;7560;51.364;12.384;2024-01-07T20:36:11;0.30;99.90
14934;DHT22;7560;51.364;12.384;2024-01-07T20:41:16;0.20;99.90
14934;DHT22;7560;51.364;12.384;2024-01-07T20:46:19;0.20;99.90
14934;DHT22;7560;51.364;12.384;2024-01-07T20:51:21;0.20;99.90
14934;DHT22;7560;51.364;12.384;2024-01-07T20:56:25;0.20;99.90
14934;DHT22;7560;51.364;12.384;2024-01-07T21:01:28;0.30;99.90
14934;DHT22;7560;51.364;12.384;2024-01-07T21:06:31;0.20;99.90
14934;DHT22;7560;51.364;12.384;2024-01-07T21:11:33;0.10;99.90
14934;DHT22;7560;51.364;12.384;2024-01-07T21:16:35;0.20;99.90
14934;DHT22;7560;51.364;12.384;2024-01-07T21:21:37;0.10;99.90
14934;DHT22;7560;51.364;12.384;2024-01-07T21:26:40;0.10;99.90
14934;DHT22;7560;51.364;12.384;2024-01-07T21:31:41;0.10;99.90
14934;DHT22;7560;51.364;12.384;2024-01-07T21:36:44;0.20;99.90
14934;DHT22;7560;51.364;12.384;2024-01-07T21:41:50;0.30;99.90
14934;DHT22;7560;51.364;12.384;2024-01-07T21:46:52;0.20;99.90
14934;DHT22;7560;51.364;12.384;2024-01-07T21:51:54;0.10;99.90
14934;DHT22;7560;51.364;12.384;2024-01-07T21:56:56;0.00;99.90
14934;DHT22;7560;51.364;12.384;2024-01-07T22:01:59;-0.10;99.90
14934;DHT22;7560;51.364;12.384;2024-01-07T22:07:00;-0.10;99.90
14934;DHT22;7560;51.364;12.384;2024-01-07T22:12:02;0.00;99.90
14934;DHT22;7560;51.364;12.384;2024-01-07T22:17:04;-0.20;99.90
14934;DHT22;7560;51.364;12.384;2024-01-07T22:22:07;-0.10;99.90
14934;DHT22;7560;51.364;12.384;2024-01-07T22:27:09;-0.10;99.90
14934;DHT22;7560;51.364;12.384;2024-01-07T22:32:11;-0.10;99.90
14934;DHT22;7560;51.364;12.384;2024-01-07T22:37:13;-0.10;99.90
14934;DHT22;7560;51.364;12.384;2024-01-07T22:42:15;-0.10;99.90
14934;DHT22;7560;51.364;12.384;2024-01-07T22:47:17;-0.10;99.90
14934;DHT22;7560;51.364;12.384;2024-01-07T22:52:20;-0.20;99.90
14934;DHT22;7560;51.364;12.384;2024-01-07T22:57:25;-0.30;99.90
14934;DHT22;7560;51.364;12.384;2024-01-07T23:02:27;-0.30;99.90
14934;DHT22;7560;51.364;12.384;2024-01-07T23:07:29;-0.50;99.90
14934;DHT22;7560;51.364;12.384;2024-01-07T23:12:30;-0.40;99.90
14934;DHT22;7560;51.364;12.384;2024-01-07T23:17:32;-0.50;99.90
14934;DHT22;7560;51.364;12.384;2024-01-07T23:22:35;-0.60;99.90
14934;DHT22;7560;51.364;12.384;2024-01-07T23:27:38;-0.70;99.90
14934;DHT22;7560;51.364;12.384;2024-01-07T23:32:42;-0.70;99.90
14934;DHT22;7560;51.364;12.384;2024-01-07T23:37:43;-0.90;99.90
14934;DHT22;7560;51.364;12.384;2024-01-07T23:42:45;-1.00;99.90
14934;DHT22;7560;51.364;12.384;2024-01-07T23:47:47;-1.10;99.90
14934;DHT22;7560;51.364;12.384;2024-01-07T23:52:49;-1.10;99.90
14934;DHT22;7560;51.364;12.384;2024-01-07T23:57:51;-1.10;99.90
